Time;durP1;ratioP1;P1;durP2;ratioP2;P2;SDS_P1;SDS_P2;PMS_P1;PMS_P2;Temp;Humidity;BMP_temperature;BMP_pressure;BME280_temperature;BME280_humidity;BME280_pressure;Samples;Min_cycle;Max_cycle;Signal;HPM_P1;HPM_P2
2021/12/06 00:01:56;;;;;;;;;;;0.30;93.70;;;;;;5128360;27;19928;-78
2021/12/06 00:04:26;;;;;;;;;;;0.30;93.80;;;;;;5157549;27;20276;-78
2021/12/06 00:06:56;;;;;;;;;;;0.30;93.80;;;;;;5150705;27;19927;-79
2021/12/06 00:09:25;;;;;;;;;;;0.30;93.70;;;;;;5146685;27;19927;-79
2021/12/06 00:11:57;;;;;;;;;;;0.30;93.60;;;;;;5145881;27;19923;-79
2021/12/06 00:14:28;;;;;;;;;;;0.30;93.60;;;;;;5143915;27;19935;-79
2021/12/06 00:16:56;;;;;;;;;;;0.30;93.70;;;;;;5142708;27;19923;-79
2021/12/06 00:19:24;;;;;;;;;;;0.30;93.70;;;;;;5145152;27;19938;-79
2021/12/06 00:21:52;;;;;;;;;;;0.30;93.70;;;;;;5142702;27;19930;-78
2021/12/06 00:24:20;;;;;;;;;;;0.30;93.70;;;;;;5128454;27;20387;-79
2021/12/06 00:26:47;;;;;;;;;;;0.40;93.70;;;;;;5125536;27;19934;-78
2021/12/06 00:29:15;;;;;;;;;;;0.40;93.70;;;;;;5112715;27;19957;-78
2021/12/06 00:31:42;;;;;;;;;;;0.40;93.70;;;;;;5125441;27;19924;-78
2021/12/06 00:34:15;;;;;;;;;;;0.50;93.70;;;;;;5140894;27;19923;-79
2021/12/06 00:36:51;;;;;;;;;;;0.50;93.70;;;;;;5125702;27;20070;-78
2021/12/06 00:39:20;;;;;;;;;;;0.50;93.60;;;;;;5101453;27;19934;-79
2021/12/06 00:41:48;;;;;;;;;;;0.50;93.60;;;;;;5136702;27;20292;-78
2021/12/06 00:44:15;;;;;;;;;;;0.50;93.60;;;;;;5115571;27;19924;-78
2021/12/06 00:46:43;;;;;;;;;;;0.50;93.60;;;;;;5143726;27;19923;-77
2021/12/06 00:49:11;;;;;;;;;;;0.50;93.50;;;;;;5141772;27;19931;-78
2021/12/06 00:51:40;;;;;;;;;;;0.60;93.50;;;;;;5110943;27;19930;-78
2021/12/06 00:54:09;;;;;;;;;;;0.50;93.40;;;;;;5127571;27;19930;-78
2021/12/06 00:56:38;;;;;;;;;;;0.50;93.40;;;;;;5149063;27;20375;-78
2021/12/06 00:59:06;;;;;;;;;;;0.50;93.30;;;;;;5113183;27;19930;-78
2021/12/06 01:01:35;;;;;;;;;;;0.50;93.30;;;;;;5141655;27;20512;-77
2021/12/06 01:04:04;;;;;;;;;;;0.50;93.50;;;;;;5127251;27;20288;-78
2021/12/06 01:06:31;;;;;;;;;;;0.50;93.70;;;;;;5127536;27;19924;-78
2021/12/06 01:08:59;;;;;;;;;;;0.50;93.80;;;;;;5129197;27;19930;-78
2021/12/06 01:11:26;;;;;;;;;;;0.50;93.70;;;;;;5148471;27;19923;-78
2021/12/06 01:13:53;;;;;;;;;;;0.50;93.70;;;;;;5125261;27;19923;-79
2021/12/06 01:16:21;;;;;;;;;;;0.50;93.70;;;;;;5130561;27;19927;-78
2021/12/06 01:18:49;;;;;;;;;;;0.50;93.80;;;;;;5125389;27;20403;-78
2021/12/06 01:21:24;;;;;;;;;;;0.50;93.80;;;;;;5125013;27;19931;-78
2021/12/06 01:23:57;;;;;;;;;;;0.50;93.80;;;;;;5127086;27;20284;-78
2021/12/06 01:31:42;;;;;;;;;;;0.60;93.80;;;;;;5148007;27;19924;-78
2021/12/06 01:39:50;;;;;;;;;;;0.60;93.60;;;;;;5137487;27;19934;-78
2021/12/06 01:42:18;;;;;;;;;;;0.50;93.70;;;;;;5147004;27;19927;-78
2021/12/06 01:44:47;;;;;;;;;;;0.50;93.60;;;;;;5117661;27;19924;-78
2021/12/06 01:47:27;;;;;;;;;;;0.50;93.60;;;;;;5117791;27;20316;-78
2021/12/06 01:50:14;;;;;;;;;;;0.50;93.60;;;;;;5150288;27;19930;-79
2021/12/06 01:52:48;;;;;;;;;;;0.50;93.50;;;;;;5122053;27;19930;-78
2021/12/06 01:55:35;;;;;;;;;;;0.40;93.40;;;;;;5120746;27;19924;-79
2021/12/06 01:58:04;;;;;;;;;;;0.40;93.40;;;;;;5097009;28;19924;-79
2021/12/06 02:00:32;;;;;;;;;;;0.30;93.60;;;;;;5113865;27;19924;-79
2021/12/06 02:03:05;;;;;;;;;;;0.30;93.80;;;;;;5124230;27;19931;-79
2021/12/06 02:05:38;;;;;;;;;;;0.40;94.00;;;;;;5118035;27;19939;-79
2021/12/06 02:08:08;;;;;;;;;;;0.40;94.00;;;;;;5117879;27;19923;-79
2021/12/06 02:10:37;;;;;;;;;;;0.50;94.00;;;;;;5115693;27;19923;-79
2021/12/06 02:13:09;;;;;;;;;;;0.50;94.00;;;;;;5101422;28;19928;-79
2021/12/06 02:18:27;;;;;;;;;;;0.50;94.10;;;;;;5112599;27;19924;-79
2021/12/06 02:21:02;;;;;;;;;;;0.50;94.10;;;;;;5116719;27;19931;-79
2021/12/06 02:23:30;;;;;;;;;;;0.50;94.10;;;;;;5115608;27;20395;-79
2021/12/06 02:25:58;;;;;;;;;;;0.50;94.00;;;;;;5132099;27;20004;-79
2021/12/06 02:28:26;;;;;;;;;;;0.50;94.00;;;;;;5113604;27;20293;-79
2021/12/06 02:30:54;;;;;;;;;;;0.50;94.00;;;;;;5113264;27;19931;-79
2021/12/06 02:33:23;;;;;;;;;;;0.40;93.90;;;;;;5107269;27;20300;-79
2021/12/06 02:35:52;;;;;;;;;;;0.40;93.90;;;;;;5130923;27;19946;-79
2021/12/06 02:38:20;;;;;;;;;;;0.40;93.90;;;;;;5131104;27;19924;-79
2021/12/06 02:40:47;;;;;;;;;;;0.40;94.00;;;;;;5129672;27;20408;-79
2021/12/06 02:43:15;;;;;;;;;;;0.40;94.00;;;;;;5120942;27;20026;-79
2021/12/06 02:45:43;;;;;;;;;;;0.40;94.10;;;;;;5114507;28;19924;-78
2021/12/06 02:48:12;;;;;;;;;;;0.40;94.00;;;;;;5113129;28;19923;-79
2021/12/06 02:50:47;;;;;;;;;;;0.40;94.00;;;;;;5115011;28;19924;-78
2021/12/06 02:53:16;;;;;;;;;;;0.30;93.90;;;;;;5108358;28;19924;-79
2021/12/06 02:55:44;;;;;;;;;;;0.30;93.80;;;;;;5135780;27;19930;-79
2021/12/06 02:58:22;;;;;;;;;;;0.30;93.60;;;;;;5120054;27;19931;-78
2021/12/06 03:00:52;;;;;;;;;;;0.20;93.60;;;;;;5122606;27;19924;-79
2021/12/06 03:03:20;;;;;;;;;;;0.20;93.60;;;;;;5133059;27;20261;-79
2021/12/06 03:05:50;;;;;;;;;;;0.10;93.70;;;;;;5138689;27;19927;-79
2021/12/06 03:08:38;;;;;;;;;;;0.10;93.70;;;;;;5124577;27;19943;-79
2021/12/06 03:11:07;;;;;;;;;;;0.00;93.80;;;;;;5136791;27;19930;-79
2021/12/06 03:13:34;;;;;;;;;;;0.00;94.00;;;;;;5129855;27;20277;-79
2021/12/06 03:16:02;;;;;;;;;;;0.00;94.20;;;;;;5119157;27;19947;-79
2021/12/06 03:18:31;;;;;;;;;;;0.10;94.30;;;;;;5118830;28;19924;-79
2021/12/06 03:20:59;;;;;;;;;;;0.10;94.40;;;;;;5119695;27;19927;-79
2021/12/06 03:23:26;;;;;;;;;;;0.10;94.40;;;;;;5137173;27;19923;-79
2021/12/06 03:25:55;;;;;;;;;;;0.10;94.40;;;;;;5137308;27;19923;-78
2021/12/06 03:28:23;;;;;;;;;;;0.20;94.50;;;;;;5136743;27;19923;-78
2021/12/06 03:30:52;;;;;;;;;;;0.20;94.50;;;;;;5135808;27;19923;-78
2021/12/06 03:33:20;;;;;;;;;;;0.20;94.50;;;;;;5136003;27;19931;-78
2021/12/06 03:35:48;;;;;;;;;;;0.20;94.50;;;;;;5136579;27;19932;-78
2021/12/06 03:38:15;;;;;;;;;;;0.20;94.50;;;;;;5137003;27;19930;-78
2021/12/06 03:40:43;;;;;;;;;;;0.30;94.50;;;;;;5139174;27;19938;-77
2021/12/06 03:43:10;;;;;;;;;;;0.30;94.50;;;;;;5124479;27;19924;-79
2021/12/06 03:45:38;;;;;;;;;;;0.40;94.50;;;;;;5101633;28;19924;-79
2021/12/06 03:48:05;;;;;;;;;;;0.40;94.40;;;;;;5119980;27;19923;-79
2021/12/06 03:50:33;;;;;;;;;;;0.50;94.40;;;;;;5120584;27;19931;-78
2021/12/06 03:53:01;;;;;;;;;;;0.50;94.40;;;;;;5122406;27;19923;-79
2021/12/06 03:55:29;;;;;;;;;;;0.60;94.40;;;;;;5136102;27;19927;-79
2021/12/06 03:57:56;;;;;;;;;;;0.70;94.40;;;;;;5122871;27;20295;-79
2021/12/06 04:00:24;;;;;;;;;;;0.70;94.30;;;;;;5138602;27;19930;-79
2021/12/06 04:02:56;;;;;;;;;;;0.80;94.30;;;;;;5124925;27;19931;-78
2021/12/06 04:05:24;;;;;;;;;;;0.80;94.20;;;;;;5137191;27;19930;-79
2021/12/06 04:07:53;;;;;;;;;;;0.80;94.20;;;;;;5115346;27;19924;-79
2021/12/06 04:10:20;;;;;;;;;;;0.80;94.20;;;;;;5116080;27;19924;-79
2021/12/06 04:12:48;;;;;;;;;;;0.90;94.10;;;;;;5116094;27;19928;-79
2021/12/06 04:15:16;;;;;;;;;;;0.90;94.10;;;;;;5105961;27;19923;-79
2021/12/06 04:17:44;;;;;;;;;;;1.00;94.10;;;;;;5116748;27;20277;-79
2021/12/06 04:20:12;;;;;;;;;;;1.00;94.20;;;;;;5097505;28;20385;-78
2021/12/06 04:22:40;;;;;;;;;;;1.00;94.10;;;;;;5115785;27;19927;-78
2021/12/06 04:25:12;;;;;;;;;;;1.00;94.10;;;;;;5114208;27;19938;-78
2021/12/06 04:27:40;;;;;;;;;;;1.10;94.10;;;;;;5116946;27;19923;-78
2021/12/06 04:30:11;;;;;;;;;;;1.10;94.10;;;;;;5115583;27;20289;-78
2021/12/06 04:32:38;;;;;;;;;;;1.20;94.10;;;;;;5117958;27;19938;-78
2021/12/06 04:35:06;;;;;;;;;;;1.20;94.20;;;;;;5115402;27;19923;-78
2021/12/06 04:37:34;;;;;;;;;;;1.20;94.20;;;;;;5120180;27;19931;-78
2021/12/06 04:40:03;;;;;;;;;;;1.20;94.10;;;;;;5133050;27;19923;-79
2021/12/06 04:42:31;;;;;;;;;;;1.20;94.10;;;;;;5118114;27;19924;-78
2021/12/06 04:44:58;;;;;;;;;;;1.20;94.10;;;;;;5123381;27;19923;-78
2021/12/06 04:47:26;;;;;;;;;;;1.20;94.10;;;;;;5117949;27;19936;-78
2021/12/06 04:49:54;;;;;;;;;;;1.30;94.10;;;;;;5132849;27;19923;-78
2021/12/06 04:52:23;;;;;;;;;;;1.30;94.10;;;;;;5127314;27;19930;-78
2021/12/06 04:54:53;;;;;;;;;;;1.30;94.10;;;;;;5137538;27;20264;-78
2021/12/06 04:57:21;;;;;;;;;;;1.30;94.10;;;;;;5151873;27;19923;-79
2021/12/06 04:59:51;;;;;;;;;;;1.30;94.10;;;;;;5116767;27;19923;-78
2021/12/06 05:02:23;;;;;;;;;;;1.30;94.10;;;;;;5124064;27;19927;-78
2021/12/06 05:04:54;;;;;;;;;;;1.40;94.10;;;;;;5138156;27;19923;-78
2021/12/06 05:07:27;;;;;;;;;;;1.30;94.10;;;;;;5133476;27;19930;-79
2021/12/06 05:09:55;;;;;;;;;;;1.40;94.10;;;;;;5127263;27;20292;-79
2021/12/06 05:12:24;;;;;;;;;;;1.40;94.10;;;;;;5101874;27;19923;-78
2021/12/06 05:14:52;;;;;;;;;;;1.40;94.10;;;;;;5110824;27;19930;-79
2021/12/06 05:17:19;;;;;;;;;;;1.40;94.10;;;;;;5134711;27;19926;-78
2021/12/06 05:19:48;;;;;;;;;;;1.40;94.10;;;;;;5132536;27;19930;-78
2021/12/06 05:22:16;;;;;;;;;;;1.40;94.10;;;;;;5135383;27;19934;-78
2021/12/06 05:24:44;;;;;;;;;;;1.40;94.10;;;;;;5154534;27;19923;-77
2021/12/06 05:27:11;;;;;;;;;;;1.50;94.10;;;;;;5119876;27;19946;-78
2021/12/06 05:29:45;;;;;;;;;;;1.40;94.10;;;;;;5118137;27;20281;-78
2021/12/06 05:32:13;;;;;;;;;;;1.50;94.10;;;;;;5137639;27;20376;-78
2021/12/06 05:34:43;;;;;;;;;;;1.50;94.10;;;;;;5101682;27;19927;-78
2021/12/06 05:37:12;;;;;;;;;;;1.50;94.10;;;;;;5108256;27;19926;-78
2021/12/06 05:39:40;;;;;;;;;;;1.50;94.10;;;;;;5142945;27;19924;-78
2021/12/06 05:42:09;;;;;;;;;;;1.50;94.10;;;;;;5143689;27;20343;-79
2021/12/06 05:44:37;;;;;;;;;;;1.50;94.10;;;;;;5135836;27;19924;-78
2021/12/06 05:47:05;;;;;;;;;;;1.60;94.10;;;;;;5134649;27;20032;-79
2021/12/06 05:49:33;;;;;;;;;;;1.60;94.10;;;;;;5134850;27;20344;-78
2021/12/06 05:52:01;;;;;;;;;;;1.60;94.10;;;;;;5135735;27;19923;-78
2021/12/06 05:54:28;;;;;;;;;;;1.60;94.10;;;;;;5116379;27;19949;-78
2021/12/06 05:56:56;;;;;;;;;;;1.60;94.10;;;;;;5117330;27;19934;-79
2021/12/06 05:59:24;;;;;;;;;;;1.60;94.10;;;;;;5136695;27;19923;-79
2021/12/06 06:01:53;;;;;;;;;;;1.60;94.10;;;;;;5143877;27;19923;-79
2021/12/06 06:04:22;;;;;;;;;;;1.60;94.10;;;;;;5135494;27;19923;-79
2021/12/06 06:06:50;;;;;;;;;;;1.60;94.10;;;;;;5118346;27;20284;-78
2021/12/06 06:09:17;;;;;;;;;;;1.60;94.10;;;;;;5117068;27;19924;-79
2021/12/06 06:11:45;;;;;;;;;;;1.70;94.10;;;;;;5116772;27;20311;-79
2021/12/06 06:14:13;;;;;;;;;;;1.70;94.10;;;;;;5117156;27;19937;-79
2021/12/06 06:17:08;;;;;;;;;;;1.70;94.20;;;;;;5100581;27;20317;-79
2021/12/06 06:19:28;;;;;;;;;;;1.80;94.20;;;;;;5099548;27;20384;-79
2021/12/06 06:21:55;;;;;;;;;;;1.80;94.20;;;;;;5117601;27;20269;-78
2021/12/06 06:24:23;;;;;;;;;;;1.80;94.20;;;;;;5153126;27;19923;-79
2021/12/06 06:26:50;;;;;;;;;;;1.90;94.20;;;;;;5153568;27;19930;-79
2021/12/06 06:29:18;;;;;;;;;;;2.00;94.10;;;;;;5154393;27;19923;-79
2021/12/06 06:31:45;;;;;;;;;;;2.00;94.10;;;;;;5139275;27;19923;-79
2021/12/06 06:34:13;;;;;;;;;;;2.10;94.00;;;;;;5150602;27;19923;-78
2021/12/06 06:36:40;;;;;;;;;;;2.10;94.00;;;;;;5133971;27;19931;-78
2021/12/06 06:39:09;;;;;;;;;;;2.20;93.90;;;;;;5137245;27;20384;-79
2021/12/06 06:41:36;;;;;;;;;;;2.20;93.90;;;;;;5136653;27;19923;-79
2021/12/06 06:44:04;;;;;;;;;;;2.20;93.80;;;;;;5136053;27;19923;-78
2021/12/06 06:46:32;;;;;;;;;;;2.30;93.70;;;;;;5134701;27;19923;-78
2021/12/06 06:49:00;;;;;;;;;;;2.30;93.70;;;;;;5137208;27;19931;-78
2021/12/06 06:51:28;;;;;;;;;;;2.30;93.60;;;;;;5120515;28;19923;-79
2021/12/06 06:53:56;;;;;;;;;;;2.30;93.60;;;;;;5133974;27;19931;-79
2021/12/06 06:56:24;;;;;;;;;;;2.30;93.50;;;;;;5114556;27;19932;-78
2021/12/06 06:58:51;;;;;;;;;;;2.30;93.50;;;;;;5135539;27;19928;-78
2021/12/06 07:01:19;;;;;;;;;;;2.30;93.40;;;;;;5138835;27;19924;-78
2021/12/06 07:03:53;;;;;;;;;;;2.30;93.40;;;;;;5123607;28;19924;-79
2021/12/06 07:06:22;;;;;;;;;;;2.40;93.40;;;;;;5141742;27;19927;-78
2021/12/06 07:08:50;;;;;;;;;;;2.40;93.40;;;;;;5133391;27;19930;-78
2021/12/06 07:11:18;;;;;;;;;;;2.40;93.30;;;;;;5146687;27;19923;-77
2021/12/06 07:13:47;;;;;;;;;;;2.50;93.30;;;;;;5127444;27;20304;-86
2021/12/06 07:16:15;;;;;;;;;;;2.40;93.30;;;;;;5153004;27;19946;-79
2021/12/06 07:18:43;;;;;;;;;;;2.50;93.20;;;;;;5137834;27;19930;-79
2021/12/06 07:21:12;;;;;;;;;;;2.50;93.20;;;;;;5154481;27;19971;-79
2021/12/06 07:23:40;;;;;;;;;;;2.60;93.20;;;;;;5131999;27;20395;-79
2021/12/06 07:26:09;;;;;;;;;;;2.60;93.10;;;;;;5134514;27;19923;-79
2021/12/06 07:28:37;;;;;;;;;;;2.60;93.00;;;;;;5116128;28;19931;-79
2021/12/06 07:31:06;;;;;;;;;;;2.60;92.90;;;;;;5119949;28;19932;-79
2021/12/06 07:33:34;;;;;;;;;;;2.60;92.90;;;;;;5147371;27;19924;-79
2021/12/06 07:36:02;;;;;;;;;;;2.70;92.80;;;;;;5144876;27;20307;-78
2021/12/06 07:38:30;;;;;;;;;;;2.70;92.80;;;;;;5119456;27;19923;-80
2021/12/06 07:40:58;;;;;;;;;;;2.70;92.80;;;;;;5154184;27;20288;-80
2021/12/06 07:43:25;;;;;;;;;;;2.70;92.80;;;;;;5147163;27;19930;-81
2021/12/06 07:45:53;;;;;;;;;;;2.70;92.80;;;;;;5143382;27;19924;-81
2021/12/06 07:48:21;;;;;;;;;;;2.70;92.80;;;;;;5158187;27;19934;-80
2021/12/06 07:50:48;;;;;;;;;;;2.70;92.70;;;;;;5133617;27;19923;-80
2021/12/06 07:53:16;;;;;;;;;;;2.70;92.70;;;;;;5141840;27;19923;-80
2021/12/06 07:55:44;;;;;;;;;;;2.70;92.80;;;;;;5145656;27;19923;-77
2021/12/06 07:58:11;;;;;;;;;;;2.70;92.80;;;;;;5137126;27;20189;-80
2021/12/06 08:00:41;;;;;;;;;;;2.70;92.80;;;;;;5118667;27;19930;-78
2021/12/06 08:03:09;;;;;;;;;;;2.80;92.80;;;;;;5148860;27;19923;-78
2021/12/06 08:05:39;;;;;;;;;;;2.80;92.80;;;;;;5124959;27;19930;-79
2021/12/06 08:08:12;;;;;;;;;;;2.80;92.80;;;;;;5107355;27;19931;-80
2021/12/06 08:10:44;;;;;;;;;;;2.80;92.80;;;;;;5153823;27;19930;-78
2021/12/06 08:13:13;;;;;;;;;;;2.80;92.70;;;;;;5158068;27;19992;-77
2021/12/06 08:15:41;;;;;;;;;;;2.80;92.70;;;;;;5132291;27;19923;-78
2021/12/06 08:18:08;;;;;;;;;;;2.80;92.70;;;;;;5140280;27;19931;-78
2021/12/06 08:20:37;;;;;;;;;;;2.80;92.70;;;;;;5134982;27;19931;-78
2021/12/06 08:23:05;;;;;;;;;;;2.90;92.70;;;;;;5121275;27;19923;-77
2021/12/06 08:25:33;;;;;;;;;;;2.80;92.60;;;;;;5132570;27;19927;-77
2021/12/06 08:28:00;;;;;;;;;;;2.90;92.60;;;;;;5151706;27;20294;-77
2021/12/06 08:30:28;;;;;;;;;;;2.90;92.60;;;;;;5143526;27;19930;-77
2021/12/06 08:32:57;;;;;;;;;;;2.90;92.70;;;;;;5135153;27;19924;-77
2021/12/06 08:35:37;;;;;;;;;;;2.90;92.60;;;;;;5122535;27;19927;-88
2021/12/06 08:38:06;;;;;;;;;;;3.00;92.60;;;;;;5133818;27;19930;-77
2021/12/06 08:40:34;;;;;;;;;;;3.00;92.60;;;;;;5132679;27;19923;-77
2021/12/06 08:43:02;;;;;;;;;;;3.00;92.60;;;;;;5157353;27;19923;-78
2021/12/06 08:45:30;;;;;;;;;;;3.00;92.60;;;;;;5143735;27;19930;-78
2021/12/06 08:47:58;;;;;;;;;;;3.00;92.60;;;;;;5157942;27;19930;-76
2021/12/06 08:50:26;;;;;;;;;;;3.00;92.60;;;;;;5156926;27;19941;-76
2021/12/06 08:52:54;;;;;;;;;;;3.10;92.60;;;;;;5157432;27;19923;-75
2021/12/06 08:55:23;;;;;;;;;;;3.10;92.60;;;;;;5161383;27;19923;-77
2021/12/06 08:57:50;;;;;;;;;;;3.10;92.60;;;;;;5142248;27;19937;-77
2021/12/06 09:00:20;;;;;;;;;;;3.20;92.50;;;;;;5157843;27;19923;-76
2021/12/06 09:02:47;;;;;;;;;;;3.20;92.50;;;;;;5159385;27;19923;-77
2021/12/06 09:05:24;;;;;;;;;;;3.20;92.50;;;;;;5141070;27;19923;-76
2021/12/06 09:07:52;;;;;;;;;;;3.30;92.50;;;;;;5140091;27;19923;-76
2021/12/06 09:10:20;;;;;;;;;;;3.30;92.40;;;;;;5157857;27;19927;-76
2021/12/06 09:12:48;;;;;;;;;;;3.30;92.30;;;;;;5157970;27;20404;-77
2021/12/06 09:15:17;;;;;;;;;;;3.30;92.30;;;;;;5157120;27;20287;-76
2021/12/06 09:17:48;;;;;;;;;;;3.40;92.40;;;;;;5137930;27;19923;-77
2021/12/06 09:20:17;;;;;;;;;;;3.40;92.40;;;;;;5155859;27;19930;-76
2021/12/06 09:22:45;;;;;;;;;;;3.30;92.50;;;;;;5156334;27;20277;-76
2021/12/06 09:25:13;;;;;;;;;;;3.40;92.50;;;;;;5156783;27;19934;-76
2021/12/06 09:27:41;;;;;;;;;;;3.40;92.50;;;;;;5137698;27;19931;-76
2021/12/06 09:30:10;;;;;;;;;;;3.40;92.60;;;;;;5137531;27;19923;-75
2021/12/06 09:32:38;;;;;;;;;;;3.40;92.60;;;;;;5138000;27;19923;-76
2021/12/06 09:35:06;;;;;;;;;;;3.40;92.60;;;;;;5157267;27;19923;-76
2021/12/06 09:37:36;;;;;;;;;;;3.40;92.60;;;;;;5157308;27;19940;-77
2021/12/06 09:40:04;;;;;;;;;;;3.40;92.60;;;;;;5156848;27;19927;-75
2021/12/06 09:42:33;;;;;;;;;;;3.40;92.50;;;;;;5157242;27;19923;-78
2021/12/06 09:45:00;;;;;;;;;;;3.40;92.50;;;;;;5157535;27;19923;-76
2021/12/06 09:47:31;;;;;;;;;;;3.30;92.40;;;;;;5158177;27;19923;-76
2021/12/06 09:49:59;;;;;;;;;;;3.30;92.40;;;;;;5138461;27;19926;-76
2021/12/06 09:52:27;;;;;;;;;;;3.30;92.40;;;;;;5156401;27;19931;-75
2021/12/06 09:54:55;;;;;;;;;;;3.30;92.40;;;;;;5155956;27;19923;-76
2021/12/06 09:57:23;;;;;;;;;;;3.30;92.40;;;;;;5157585;27;19923;-77
2021/12/06 09:59:50;;;;;;;;;;;3.30;92.40;;;;;;5155904;27;19930;-76
2021/12/06 10:02:19;;;;;;;;;;;3.30;92.50;;;;;;5138224;27;19923;-76
2021/12/06 10:04:50;;;;;;;;;;;3.30;92.40;;;;;;5156581;27;19923;-76
2021/12/06 10:07:18;;;;;;;;;;;3.30;92.50;;;;;;5139021;27;19930;-76
2021/12/06 10:09:46;;;;;;;;;;;3.30;92.40;;;;;;5156993;27;19923;-77
2021/12/06 10:12:16;;;;;;;;;;;3.30;92.40;;;;;;5138507;27;19927;-76
2021/12/06 10:14:44;;;;;;;;;;;3.30;92.40;;;;;;5138587;27;19934;-77
2021/12/06 10:17:12;;;;;;;;;;;3.30;92.40;;;;;;5156149;27;20421;-78
2021/12/06 10:19:40;;;;;;;;;;;3.30;92.40;;;;;;5157539;27;19930;-76
2021/12/06 10:22:07;;;;;;;;;;;3.30;92.30;;;;;;5156078;27;19930;-77
2021/12/06 10:24:35;;;;;;;;;;;3.30;92.10;;;;;;5157624;27;19923;-77
2021/12/06 10:27:07;;;;;;;;;;;3.30;92.10;;;;;;5159032;27;19923;-77
2021/12/06 10:29:46;;;;;;;;;;;3.20;92.00;;;;;;5158889;27;19923;-77
2021/12/06 10:32:15;;;;;;;;;;;3.10;92.00;;;;;;5119880;27;19934;-78
2021/12/06 10:34:45;;;;;;;;;;;3.10;91.90;;;;;;5156426;27;19927;-79
2021/12/06 10:37:26;;;;;;;;;;;3.00;91.90;;;;;;5138012;27;19930;-79
2021/12/06 10:39:54;;;;;;;;;;;2.90;92.00;;;;;;5136971;27;19927;-79
2021/12/06 10:42:36;;;;;;;;;;;2.80;92.10;;;;;;5155593;27;20401;-80
2021/12/06 10:45:05;;;;;;;;;;;2.80;92.20;;;;;;5156604;27;19927;-80
2021/12/06 10:47:32;;;;;;;;;;;2.80;92.30;;;;;;5136091;27;19930;-79
2021/12/06 10:50:11;;;;;;;;;;;2.70;92.40;;;;;;5154935;27;20368;-79
2021/12/06 10:52:50;;;;;;;;;;;2.70;92.50;;;;;;5155536;27;19923;-79
2021/12/06 10:55:18;;;;;;;;;;;2.70;92.60;;;;;;5156659;27;20396;-79
2021/12/06 10:57:46;;;;;;;;;;;2.60;92.60;;;;;;5155998;27;19923;-79
2021/12/06 11:00:34;;;;;;;;;;;2.70;92.70;;;;;;5136988;27;19931;-78
2021/12/06 11:03:02;;;;;;;;;;;2.60;92.80;;;;;;5136310;27;20380;-80
2021/12/06 11:05:32;;;;;;;;;;;2.60;92.90;;;;;;5147405;27;19923;-81
2021/12/06 11:08:10;;;;;;;;;;;2.70;92.90;;;;;;5155992;27;19946;-81
2021/12/06 11:10:42;;;;;;;;;;;2.60;92.80;;;;;;5154932;27;19930;-80
2021/12/06 11:13:12;;;;;;;;;;;2.60;92.80;;;;;;5155261;27;20085;-79
2021/12/06 11:16:03;;;;;;;;;;;2.60;92.80;;;;;;5136955;27;19924;-79
2021/12/06 11:18:32;;;;;;;;;;;2.60;92.80;;;;;;5141086;27;19923;-78
2021/12/06 11:20:59;;;;;;;;;;;2.50;92.70;;;;;;5158134;27;20400;-79
2021/12/06 11:23:27;;;;;;;;;;;2.50;92.80;;;;;;5158101;27;19923;-77
2021/12/06 11:26:02;;;;;;;;;;;2.50;92.80;;;;;;5140301;27;19923;-76
2021/12/06 11:28:32;;;;;;;;;;;2.50;92.80;;;;;;5159014;27;19923;-77
2021/12/06 11:31:03;;;;;;;;;;;2.50;92.90;;;;;;5123484;27;19931;-78
2021/12/06 11:33:33;;;;;;;;;;;2.60;93.00;;;;;;5158612;27;19930;-79
2021/12/06 11:36:02;;;;;;;;;;;2.60;93.00;;;;;;5141560;27;19923;-80
2021/12/06 11:38:30;;;;;;;;;;;2.60;93.00;;;;;;5147483;27;20380;-79
2021/12/06 11:40:58;;;;;;;;;;;2.60;93.00;;;;;;5145539;27;19923;-79
2021/12/06 11:43:26;;;;;;;;;;;2.60;93.00;;;;;;5149858;27;19939;-80
2021/12/06 11:45:57;;;;;;;;;;;2.50;93.00;;;;;;5145062;27;19932;-80
2021/12/06 11:48:27;;;;;;;;;;;2.60;93.10;;;;;;5150360;27;20284;-80
2021/12/06 11:50:56;;;;;;;;;;;2.60;93.10;;;;;;5122664;27;19943;-80
2021/12/06 11:53:28;;;;;;;;;;;2.60;93.10;;;;;;5139418;27;19923;-78
2021/12/06 11:55:58;;;;;;;;;;;2.60;93.00;;;;;;5126861;27;19923;-78
2021/12/06 11:58:31;;;;;;;;;;;2.70;93.00;;;;;;5142223;27;19927;-78
2021/12/06 12:01:07;;;;;;;;;;;2.70;93.00;;;;;;5140935;27;19931;-77
2021/12/06 12:03:37;;;;;;;;;;;2.70;93.00;;;;;;5124624;27;19927;-78
2021/12/06 12:06:21;;;;;;;;;;;2.70;93.00;;;;;;5128563;27;19924;-78
2021/12/06 12:09:05;;;;;;;;;;;2.70;93.00;;;;;;5130528;27;20396;-78
2021/12/06 12:11:52;;;;;;;;;;;2.80;93.00;;;;;;5149308;27;19930;-78
2021/12/06 12:14:29;;;;;;;;;;;2.70;93.00;;;;;;5142888;27;20486;-78
2021/12/06 12:16:57;;;;;;;;;;;2.80;93.00;;;;;;5105892;27;19931;-79
2021/12/06 12:19:25;;;;;;;;;;;2.80;93.00;;;;;;5122749;27;19927;-76
2021/12/06 12:21:53;;;;;;;;;;;2.80;93.10;;;;;;5122639;27;19938;-76
2021/12/06 12:24:20;;;;;;;;;;;2.90;93.10;;;;;;5126218;27;19927;-76
2021/12/06 12:27:04;;;;;;;;;;;2.90;93.20;;;;;;5144288;27;19923;-76
2021/12/06 12:29:32;;;;;;;;;;;3.00;93.20;;;;;;5144210;27;19924;-77
2021/12/06 12:32:04;;;;;;;;;;;3.10;93.20;;;;;;5143373;27;19924;-77
2021/12/06 12:34:34;;;;;;;;;;;3.20;93.30;;;;;;5143925;27;19935;-77
2021/12/06 12:37:03;;;;;;;;;;;3.30;93.30;;;;;;5140629;27;19931;-77
2021/12/06 12:39:31;;;;;;;;;;;3.40;93.30;;;;;;5143112;27;19927;-76
2021/12/06 12:42:02;;;;;;;;;;;3.50;93.20;;;;;;5148622;27;19938;-75
2021/12/06 12:44:40;;;;;;;;;;;3.60;93.20;;;;;;5148300;27;19927;-76
2021/12/06 12:47:19;;;;;;;;;;;3.70;93.20;;;;;;5142482;27;19923;-77
2021/12/06 12:49:48;;;;;;;;;;;4.00;93.40;;;;;;5133611;27;20295;-77
2021/12/06 12:52:33;;;;;;;;;;;4.50;93.50;;;;;;5130678;27;20094;-77
2021/12/06 12:55:00;;;;;;;;;;;5.10;93.50;;;;;;5113241;27;19931;-76
2021/12/06 12:57:35;;;;;;;;;;;5.90;93.30;;;;;;5141713;27;19922;-77
2021/12/06 13:00:05;;;;;;;;;;;6.60;91.30;;;;;;5144283;27;19924;-76
2021/12/06 13:02:34;;;;;;;;;;;7.00;89.30;;;;;;5146943;27;19923;-77
2021/12/06 13:05:07;;;;;;;;;;;7.30;88.00;;;;;;5142109;27;19923;-77
2021/12/06 13:07:56;;;;;;;;;;;7.00;86.00;;;;;;5143827;27;19934;-78
2021/12/06 13:10:30;;;;;;;;;;;6.70;86.00;;;;;;5132024;27;19923;-77
2021/12/06 13:13:00;;;;;;;;;;;6.50;87.10;;;;;;5144035;27;19923;-77
2021/12/06 13:15:35;;;;;;;;;;;6.40;86.70;;;;;;5123442;27;19923;-78
2021/12/06 13:18:28;;;;;;;;;;;6.30;86.70;;;;;;5142945;27;19930;-77
2021/12/06 13:20:57;;;;;;;;;;;6.10;86.50;;;;;;5135492;27;19934;-78
2021/12/06 13:23:26;;;;;;;;;;;5.90;86.60;;;;;;5135402;27;19931;-78
2021/12/06 13:26:07;;;;;;;;;;;5.80;87.20;;;;;;5135599;27;19924;-78
2021/12/06 13:28:53;;;;;;;;;;;5.70;87.00;;;;;;5135795;27;19923;-78
2021/12/06 13:31:24;;;;;;;;;;;5.60;87.30;;;;;;5135329;27;19927;-78
2021/12/06 13:33:52;;;;;;;;;;;5.70;87.70;;;;;;5134539;27;19923;-79
2021/12/06 13:36:39;;;;;;;;;;;5.70;88.10;;;;;;5134578;27;19924;-79
2021/12/06 13:39:26;;;;;;;;;;;5.60;88.30;;;;;;5134705;27;19930;-78
2021/12/06 13:41:53;;;;;;;;;;;5.50;88.60;;;;;;5136542;27;20288;-78
2021/12/06 13:44:22;;;;;;;;;;;5.40;88.90;;;;;;5117874;27;19928;-77
2021/12/06 13:46:56;;;;;;;;;;;5.40;89.10;;;;;;5135310;27;19924;-79
2021/12/06 13:49:23;;;;;;;;;;;5.50;89.40;;;;;;5135126;27;19931;-79
2021/12/06 13:51:58;;;;;;;;;;;5.60;89.40;;;;;;5153582;27;19924;-78
2021/12/06 13:54:31;;;;;;;;;;;5.70;89.00;;;;;;5138106;27;19930;-78
2021/12/06 13:57:00;;;;;;;;;;;5.80;89.00;;;;;;5156466;27;19923;-78
2021/12/06 13:59:31;;;;;;;;;;;5.90;88.80;;;;;;5149813;27;19923;-79
2021/12/06 14:02:06;;;;;;;;;;;5.80;88.70;;;;;;5135283;27;20295;-78
2021/12/06 14:04:35;;;;;;;;;;;5.90;88.50;;;;;;5134060;27;19923;-79
2021/12/06 14:07:05;;;;;;;;;;;5.80;88.50;;;;;;5135635;27;19930;-77
2021/12/06 14:09:37;;;;;;;;;;;5.80;88.60;;;;;;5116945;27;19923;-77
2021/12/06 14:12:06;;;;;;;;;;;5.70;88.60;;;;;;5134152;27;19923;-79
2021/12/06 14:14:37;;;;;;;;;;;5.50;89.00;;;;;;5135329;27;19924;-79
2021/12/06 14:17:09;;;;;;;;;;;5.30;89.40;;;;;;5134862;27;19934;-78
2021/12/06 14:19:37;;;;;;;;;;;5.30;89.80;;;;;;5116745;27;20403;-78
2021/12/06 14:22:05;;;;;;;;;;;5.30;90.00;;;;;;5116507;27;19938;-79
2021/12/06 14:24:34;;;;;;;;;;;5.20;90.30;;;;;;5135684;27;19947;-79
2021/12/06 14:27:02;;;;;;;;;;;5.10;90.50;;;;;;5134444;27;19923;-79
2021/12/06 14:29:31;;;;;;;;;;;5.10;90.60;;;;;;5134813;27;20026;-79
2021/12/06 14:32:00;;;;;;;;;;;5.00;90.80;;;;;;5134944;27;19930;-79
2021/12/06 14:34:29;;;;;;;;;;;5.00;91.00;;;;;;5134934;27;19931;-79
2021/12/06 14:36:57;;;;;;;;;;;4.90;91.10;;;;;;5134655;27;19934;-79
2021/12/06 14:39:25;;;;;;;;;;;5.00;91.00;;;;;;5134091;27;19930;-78
2021/12/06 14:42:01;;;;;;;;;;;5.00;90.90;;;;;;5116527;27;19931;-80
2021/12/06 14:44:50;;;;;;;;;;;5.00;90.90;;;;;;5116154;27;19930;-80
2021/12/06 14:47:20;;;;;;;;;;;5.00;91.00;;;;;;5133114;28;19997;-80
2021/12/06 14:49:48;;;;;;;;;;;5.10;90.70;;;;;;5133407;27;19927;-79
2021/12/06 14:52:21;;;;;;;;;;;5.10;90.60;;;;;;5136393;27;19923;-80
2021/12/06 14:54:55;;;;;;;;;;;5.00;90.60;;;;;;5154026;27;19930;-79
2021/12/06 14:57:30;;;;;;;;;;;5.00;90.70;;;;;;5119411;27;19923;-80
2021/12/06 15:00:20;;;;;;;;;;;5.00;90.80;;;;;;5136520;27;19930;-80
2021/12/06 15:02:53;;;;;;;;;;;4.80;90.90;;;;;;5143526;27;19934;-80